sensor_id;sensor_type;location;lat;lon;timestamp;temperature;humidity
36856;DHT22;22788;51.434;6.786;2022-10-16T00:02:09;15.20;96.00
36856;DHT22;22788;51.434;6.786;2022-10-16T00:04:35;15.10;96.00
36856;DHT22;22788;51.434;6.786;2022-10-16T00:07:01;15.10;96.00
36856;DHT22;22788;51.434;6.786;2022-10-16T00:09:27;15.10;96.00
36856;DHT22;22788;51.434;6.786;2022-10-16T00:11:54;15.10;96.00
36856;DHT22;22788;51.434;6.786;2022-10-16T00:14:20;15.10;96.00
36856;DHT22;22788;51.434;6.786;2022-10-16T00:16:47;15.10;96.00
36856;DHT22;22788;51.434;6.786;2022-10-16T00:19:13;15.10;96.00
36856;DHT22;22788;51.434;6.786;2022-10-16T00:21:39;15.10;96.00
36856;DHT22;22788;51.434;6.786;2022-10-16T00:24:07;15.10;96.00
36856;DHT22;22788;51.434;6.786;2022-10-16T00:26:34;15.10;96.00
36856;DHT22;22788;51.434;6.786;2022-10-16T00:29:01;15.10;96.00
36856;DHT22;22788;51.434;6.786;2022-10-16T00:31:27;15.10;96.00
36856;DHT22;22788;51.434;6.786;2022-10-16T00:33:55;15.10;96.00
36856;DHT22;22788;51.434;6.786;2022-10-16T00:36:23;15.10;95.90
36856;DHT22;22788;51.434;6.786;2022-10-16T00:38:50;15.20;96.00
36856;DHT22;22788;51.434;6.786;2022-10-16T00:41:17;15.10;96.00
36856;DHT22;22788;51.434;6.786;2022-10-16T00:43:45;15.10;96.00
36856;DHT22;22788;51.434;6.786;2022-10-16T00:46:15;15.10;96.00
36856;DHT22;22788;51.434;6.786;2022-10-16T00:48:46;15.10;96.00
36856;DHT22;22788;51.434;6.786;2022-10-16T00:51:15;15.10;96.00
36856;DHT22;22788;51.434;6.786;2022-10-16T00:53:44;15.00;96.00
36856;DHT22;22788;51.434;6.786;2022-10-16T00:56:10;15.00;96.00
36856;DHT22;22788;51.434;6.786;2022-10-16T00:58:36;15.10;96.10
36856;DHT22;22788;51.434;6.786;2022-10-16T01:01:02;15.00;96.00
36856;DHT22;22788;51.434;6.786;2022-10-16T01:03:30;15.00;96.10
36856;DHT22;22788;51.434;6.786;2022-10-16T01:06:19;15.00;96.00
36856;DHT22;22788;51.434;6.786;2022-10-16T01:09:01;15.00;96.00
36856;DHT22;22788;51.434;6.786;2022-10-16T01:11:33;15.00;96.00
36856;DHT22;22788;51.434;6.786;2022-10-16T01:14:06;15.00;96.00
36856;DHT22;22788;51.434;6.786;2022-10-16T01:16:40;15.00;96.00
36856;DHT22;22788;51.434;6.786;2022-10-16T01:19:13;15.00;96.00
36856;DHT22;22788;51.434;6.786;2022-10-16T01:21:45;15.00;96.00
36856;DHT22;22788;51.434;6.786;2022-10-16T01:24:17;15.00;96.10
36856;DHT22;22788;51.434;6.786;2022-10-16T01:27:11;15.00;96.10
36856;DHT22;22788;51.434;6.786;2022-10-16T01:29:45;15.00;96.10
36856;DHT22;22788;51.434;6.786;2022-10-16T01:32:17;15.00;96.10
36856;DHT22;22788;51.434;6.786;2022-10-16T01:34:48;15.00;96.10
36856;DHT22;22788;51.434;6.786;2022-10-16T01:37:24;15.00;96.10
36856;DHT22;22788;51.434;6.786;2022-10-16T01:39:53;15.00;96.10
36856;DHT22;22788;51.434;6.786;2022-10-16T01:42:25;14.90;96.00
36856;DHT22;22788;51.434;6.786;2022-10-16T01:44:53;15.00;96.10
36856;DHT22;22788;51.434;6.786;2022-10-16T01:47:22;15.00;96.00
36856;DHT22;22788;51.434;6.786;2022-10-16T01:49:50;15.00;96.00
36856;DHT22;22788;51.434;6.786;2022-10-16T01:52:21;15.00;96.10
36856;DHT22;22788;51.434;6.786;2022-10-16T01:54:50;14.90;96.10
36856;DHT22;22788;51.434;6.786;2022-10-16T01:57:19;15.10;96.10
36856;DHT22;22788;51.434;6.786;2022-10-16T01:59:51;15.00;96.10
36856;DHT22;22788;51.434;6.786;2022-10-16T02:02:20;14.90;96.10
36856;DHT22;22788;51.434;6.786;2022-10-16T02:04:51;15.00;96.00
36856;DHT22;22788;51.434;6.786;2022-10-16T02:07:18;14.90;96.10
36856;DHT22;22788;51.434;6.786;2022-10-16T02:09:45;15.00;96.10
36856;DHT22;22788;51.434;6.786;2022-10-16T02:12:14;15.00;96.10
36856;DHT22;22788;51.434;6.786;2022-10-16T02:14:42;14.90;96.00
36856;DHT22;22788;51.434;6.786;2022-10-16T02:17:14;14.90;96.10
36856;DHT22;22788;51.434;6.786;2022-10-16T02:19:42;14.90;96.10
36856;DHT22;22788;51.434;6.786;2022-10-16T02:22:14;15.10;96.20
36856;DHT22;22788;51.434;6.786;2022-10-16T02:24:47;14.90;96.10
36856;DHT22;22788;51.434;6.786;2022-10-16T02:27:21;14.90;96.10
36856;DHT22;22788;51.434;6.786;2022-10-16T02:29:52;14.90;96.10
36856;DHT22;22788;51.434;6.786;2022-10-16T02:32:23;14.90;96.10
36856;DHT22;22788;51.434;6.786;2022-10-16T02:34:50;14.90;96.10
36856;DHT22;22788;51.434;6.786;2022-10-16T02:37:18;14.90;96.10
36856;DHT22;22788;51.434;6.786;2022-10-16T02:39:44;14.90;96.10
36856;DHT22;22788;51.434;6.786;2022-10-16T02:42:11;14.90;96.00
36856;DHT22;22788;51.434;6.786;2022-10-16T02:44:37;14.90;96.10
36856;DHT22;22788;51.434;6.786;2022-10-16T02:47:03;14.90;96.10
36856;DHT22;22788;51.434;6.786;2022-10-16T02:49:31;14.80;96.00
36856;DHT22;22788;51.434;6.786;2022-10-16T02:51:57;14.90;96.10
36856;DHT22;22788;51.434;6.786;2022-10-16T02:54:23;14.90;96.10
36856;DHT22;22788;51.434;6.786;2022-10-16T02:56:49;14.90;96.10
36856;DHT22;22788;51.434;6.786;2022-10-16T02:59:15;14.90;96.10
36856;DHT22;22788;51.434;6.786;2022-10-16T03:01:41;14.90;96.10
36856;DHT22;22788;51.434;6.786;2022-10-16T03:04:07;14.90;96.10
36856;DHT22;22788;51.434;6.786;2022-10-16T03:06:35;14.80;96.10
36856;DHT22;22788;51.434;6.786;2022-10-16T03:09:01;14.80;96.10
36856;DHT22;22788;51.434;6.786;2022-10-16T03:11:27;14.90;96.10
36856;DHT22;22788;51.434;6.786;2022-10-16T03:13:53;14.90;96.10
36856;DHT22;22788;51.434;6.786;2022-10-16T03:16:19;14.90;96.10
36856;DHT22;22788;51.434;6.786;2022-10-16T03:18:48;14.90;96.20
36856;DHT22;22788;51.434;6.786;2022-10-16T03:21:14;14.80;96.10
36856;DHT22;22788;51.434;6.786;2022-10-16T03:23:41;14.90;96.20
36856;DHT22;22788;51.434;6.786;2022-10-16T03:26:07;14.90;96.10
36856;DHT22;22788;51.434;6.786;2022-10-16T03:28:33;14.80;96.10
36856;DHT22;22788;51.434;6.786;2022-10-16T03:30:59;14.80;96.10
36856;DHT22;22788;51.434;6.786;2022-10-16T03:33:25;14.80;96.10
36856;DHT22;22788;51.434;6.786;2022-10-16T03:35:52;14.90;96.10
36856;DHT22;22788;51.434;6.786;2022-10-16T03:38:18;14.80;96.10
36856;DHT22;22788;51.434;6.786;2022-10-16T03:40:45;14.80;96.10
36856;DHT22;22788;51.434;6.786;2022-10-16T03:43:11;14.80;96.10
36856;DHT22;22788;51.434;6.786;2022-10-16T03:45:37;14.60;96.10
36856;DHT22;22788;51.434;6.786;2022-10-16T03:48:04;14.80;96.10
36856;DHT22;22788;51.434;6.786;2022-10-16T03:50:31;14.80;96.10
36856;DHT22;22788;51.434;6.786;2022-10-16T03:52:57;14.80;96.00
36856;DHT22;22788;51.434;6.786;2022-10-16T03:55:23;14.80;96.00
36856;DHT22;22788;51.434;6.786;2022-10-16T03:57:50;14.80;96.00
36856;DHT22;22788;51.434;6.786;2022-10-16T04:00:17;14.80;96.00
36856;DHT22;22788;51.434;6.786;2022-10-16T04:02:43;14.80;96.10
36856;DHT22;22788;51.434;6.786;2022-10-16T04:05:09;14.80;96.10
36856;DHT22;22788;51.434;6.786;2022-10-16T04:07:35;14.80;96.00
36856;DHT22;22788;51.434;6.786;2022-10-16T04:10:01;14.80;96.00
36856;DHT22;22788;51.434;6.786;2022-10-16T04:12:27;14.80;96.10
36856;DHT22;22788;51.434;6.786;2022-10-16T04:14:55;14.80;96.10
36856;DHT22;22788;51.434;6.786;2022-10-16T04:17:21;14.80;96.10
36856;DHT22;22788;51.434;6.786;2022-10-16T04:19:47;14.80;96.10
36856;DHT22;22788;51.434;6.786;2022-10-16T04:22:13;14.80;96.10
36856;DHT22;22788;51.434;6.786;2022-10-16T04:24:42;14.80;96.00
36856;DHT22;22788;51.434;6.786;2022-10-16T04:27:08;14.80;96.00
36856;DHT22;22788;51.434;6.786;2022-10-16T04:29:34;14.80;96.10
36856;DHT22;22788;51.434;6.786;2022-10-16T04:32:01;14.80;96.00
36856;DHT22;22788;51.434;6.786;2022-10-16T04:34:27;14.80;96.00
36856;DHT22;22788;51.434;6.786;2022-10-16T04:36:53;14.80;96.00
36856;DHT22;22788;51.434;6.786;2022-10-16T04:39:19;14.80;96.00
36856;DHT22;22788;51.434;6.786;2022-10-16T04:41:45;14.70;96.00
36856;DHT22;22788;51.434;6.786;2022-10-16T04:44:11;14.80;96.00
36856;DHT22;22788;51.434;6.786;2022-10-16T04:46:37;14.80;96.10
36856;DHT22;22788;51.434;6.786;2022-10-16T04:49:05;14.70;96.00
36856;DHT22;22788;51.434;6.786;2022-10-16T04:51:31;14.80;96.10
36856;DHT22;22788;51.434;6.786;2022-10-16T04:53:57;14.70;96.00
36856;DHT22;22788;51.434;6.786;2022-10-16T04:56:23;14.70;96.10
36856;DHT22;22788;51.434;6.786;2022-10-16T04:58:49;14.80;96.10
36856;DHT22;22788;51.434;6.786;2022-10-16T05:01:15;14.70;96.00
36856;DHT22;22788;51.434;6.786;2022-10-16T05:03:41;14.70;96.00
36856;DHT22;22788;51.434;6.786;2022-10-16T05:06:09;14.70;96.00
36856;DHT22;22788;51.434;6.786;2022-10-16T05:08:46;14.70;96.00
36856;DHT22;22788;51.434;6.786;2022-10-16T05:11:14;14.80;96.10
36856;DHT22;22788;51.434;6.786;2022-10-16T05:13:40;14.90;96.10
36856;DHT22;22788;51.434;6.786;2022-10-16T05:16:06;14.70;96.10
36856;DHT22;22788;51.434;6.786;2022-10-16T05:18:33;14.70;96.10
36856;DHT22;22788;51.434;6.786;2022-10-16T05:20:59;14.70;96.10
36856;DHT22;22788;51.434;6.786;2022-10-16T05:23:26;14.70;96.10
36856;DHT22;22788;51.434;6.786;2022-10-16T05:25:53;14.70;96.10
36856;DHT22;22788;51.434;6.786;2022-10-16T05:28:19;14.70;96.00
36856;DHT22;22788;51.434;6.786;2022-10-16T05:30:45;14.70;96.00
36856;DHT22;22788;51.434;6.786;2022-10-16T05:33:11;14.70;96.00
36856;DHT22;22788;51.434;6.786;2022-10-16T05:35:37;14.70;96.00
36856;DHT22;22788;51.434;6.786;2022-10-16T05:38:03;14.60;96.00
36856;DHT22;22788;51.434;6.786;2022-10-16T05:40:31;14.70;96.10
36856;DHT22;22788;51.434;6.786;2022-10-16T05:42:57;14.60;96.10
36856;DHT22;22788;51.434;6.786;2022-10-16T05:45:23;14.70;96.10
36856;DHT22;22788;51.434;6.786;2022-10-16T05:47:49;14.70;96.10
36856;DHT22;22788;51.434;6.786;2022-10-16T05:50:15;14.70;96.10
36856;DHT22;22788;51.434;6.786;2022-10-16T05:52:41;14.70;96.00
36856;DHT22;22788;51.434;6.786;2022-10-16T05:55:08;14.60;96.00
36856;DHT22;22788;51.434;6.786;2022-10-16T05:57:35;14.60;95.90
36856;DHT22;22788;51.434;6.786;2022-10-16T06:00:02;14.60;96.00
36856;DHT22;22788;51.434;6.786;2022-10-16T06:02:28;14.60;96.10
36856;DHT22;22788;51.434;6.786;2022-10-16T06:04:54;14.60;96.10
36856;DHT22;22788;51.434;6.786;2022-10-16T06:07:20;14.60;96.10
36856;DHT22;22788;51.434;6.786;2022-10-16T06:09:48;14.70;96.10
36856;DHT22;22788;51.434;6.786;2022-10-16T06:12:14;14.60;96.10
36856;DHT22;22788;51.434;6.786;2022-10-16T06:14:42;14.60;96.10
36856;DHT22;22788;51.434;6.786;2022-10-16T06:17:08;14.60;96.00
36856;DHT22;22788;51.434;6.786;2022-10-16T06:19:34;14.70;96.00
36856;DHT22;22788;51.434;6.786;2022-10-16T06:22:00;14.60;96.10
36856;DHT22;22788;51.434;6.786;2022-10-16T06:24:26;14.60;96.00
36856;DHT22;22788;51.434;6.786;2022-10-16T06:26:52;14.70;96.00
36856;DHT22;22788;51.434;6.786;2022-10-16T06:29:18;14.50;96.00
36856;DHT22;22788;51.434;6.786;2022-10-16T06:31:45;14.60;96.10
36856;DHT22;22788;51.434;6.786;2022-10-16T06:34:11;14.60;95.90
36856;DHT22;22788;51.434;6.786;2022-10-16T06:36:38;14.60;96.10
36856;DHT22;22788;51.434;6.786;2022-10-16T06:39:04;14.60;96.10
36856;DHT22;22788;51.434;6.786;2022-10-16T06:41:31;14.60;96.10
36856;DHT22;22788;51.434;6.786;2022-10-16T06:43:57;14.60;96.10
36856;DHT22;22788;51.434;6.786;2022-10-16T06:46:24;14.60;96.10
36856;DHT22;22788;51.434;6.786;2022-10-16T06:48:52;14.60;96.00
36856;DHT22;22788;51.434;6.786;2022-10-16T06:51:19;14.60;96.00
36856;DHT22;22788;51.434;6.786;2022-10-16T06:53:47;14.60;96.00
36856;DHT22;22788;51.434;6.786;2022-10-16T06:56:14;14.50;96.00
36856;DHT22;22788;51.434;6.786;2022-10-16T06:58:41;14.50;96.00
36856;DHT22;22788;51.434;6.786;2022-10-16T07:01:08;14.60;96.00
36856;DHT22;22788;51.434;6.786;2022-10-16T07:03:36;14.50;96.00
36856;DHT22;22788;51.434;6.786;2022-10-16T07:06:05;14.50;96.10
36856;DHT22;22788;51.434;6.786;2022-10-16T07:08:32;14.60;96.10
36856;DHT22;22788;51.434;6.786;2022-10-16T07:11:00;14.50;96.10
36856;DHT22;22788;51.434;6.786;2022-10-16T07:13:26;14.50;96.00
36856;DHT22;22788;51.434;6.786;2022-10-16T07:15:52;14.50;96.10
36856;DHT22;22788;51.434;6.786;2022-10-16T07:18:18;14.50;96.10
36856;DHT22;22788;51.434;6.786;2022-10-16T07:20:47;14.60;96.10
36856;DHT22;22788;51.434;6.786;2022-10-16T07:23:15;14.50;96.10
36856;DHT22;22788;51.434;6.786;2022-10-16T07:25:41;14.50;96.10
36856;DHT22;22788;51.434;6.786;2022-10-16T07:28:07;14.50;96.10
36856;DHT22;22788;51.434;6.786;2022-10-16T07:30:35;14.50;96.00
36856;DHT22;22788;51.434;6.786;2022-10-16T07:33:01;14.60;96.30
36856;DHT22;22788;51.434;6.786;2022-10-16T07:35:27;14.50;96.00
36856;DHT22;22788;51.434;6.786;2022-10-16T07:37:53;14.60;96.00
36856;DHT22;22788;51.434;6.786;2022-10-16T07:40:21;14.60;96.00
36856;DHT22;22788;51.434;6.786;2022-10-16T07:42:47;14.50;95.90
36856;DHT22;22788;51.434;6.786;2022-10-16T07:45:16;14.40;95.90
36856;DHT22;22788;51.434;6.786;2022-10-16T07:47:42;14.50;96.00
36856;DHT22;22788;51.434;6.786;2022-10-16T07:50:08;14.50;96.00
36856;DHT22;22788;51.434;6.786;2022-10-16T07:52:34;14.60;96.00
36856;DHT22;22788;51.434;6.786;2022-10-16T07:55:00;14.50;96.10
36856;DHT22;22788;51.434;6.786;2022-10-16T07:57:27;14.60;96.00
36856;DHT22;22788;51.434;6.786;2022-10-16T07:59:53;14.60;96.00
36856;DHT22;22788;51.434;6.786;2022-10-16T08:04:54;14.60;95.90
36856;DHT22;22788;51.434;6.786;2022-10-16T08:07:20;14.60;96.00
36856;DHT22;22788;51.434;6.786;2022-10-16T08:09:49;14.70;96.00
36856;DHT22;22788;51.434;6.786;2022-10-16T08:12:16;14.50;96.00
36856;DHT22;22788;51.434;6.786;2022-10-16T08:14:43;14.60;96.00
36856;DHT22;22788;51.434;6.786;2022-10-16T08:17:09;14.60;96.00
36856;DHT22;22788;51.434;6.786;2022-10-16T08:19:35;14.60;95.80
36856;DHT22;22788;51.434;6.786;2022-10-16T08:22:01;14.60;96.00
36856;DHT22;22788;51.434;6.786;2022-10-16T08:24:27;14.60;96.00
36856;DHT22;22788;51.434;6.786;2022-10-16T08:26:53;14.60;96.20
36856;DHT22;22788;51.434;6.786;2022-10-16T08:29:19;14.60;95.90
36856;DHT22;22788;51.434;6.786;2022-10-16T08:31:47;14.60;95.90
36856;DHT22;22788;51.434;6.786;2022-10-16T08:34:13;14.60;95.90
36856;DHT22;22788;51.434;6.786;2022-10-16T08:36:39;14.60;95.80
36856;DHT22;22788;51.434;6.786;2022-10-16T08:39:05;14.70;96.20
36856;DHT22;22788;51.434;6.786;2022-10-16T08:44:56;14.60;96.00
36856;DHT22;22788;51.434;6.786;2022-10-16T08:47:35;14.60;96.00
36856;DHT22;22788;51.434;6.786;2022-10-16T08:50:10;14.70;95.80
36856;DHT22;22788;51.434;6.786;2022-10-16T08:52:40;14.70;96.30
36856;DHT22;22788;51.434;6.786;2022-10-16T08:55:19;14.70;96.00
36856;DHT22;22788;51.434;6.786;2022-10-16T08:57:50;14.70;96.00
36856;DHT22;22788;51.434;6.786;2022-10-16T09:00:16;14.70;95.90
36856;DHT22;22788;51.434;6.786;2022-10-16T09:02:50;14.70;96.30
36856;DHT22;22788;51.434;6.786;2022-10-16T09:05:27;14.70;95.90
36856;DHT22;22788;51.434;6.786;2022-10-16T09:08:03;14.70;95.70
36856;DHT22;22788;51.434;6.786;2022-10-16T09:10:38;14.70;95.90
36856;DHT22;22788;51.434;6.786;2022-10-16T09:13:15;14.80;95.80
36856;DHT22;22788;51.434;6.786;2022-10-16T09:15:49;14.80;96.40
36856;DHT22;22788;51.434;6.786;2022-10-16T09:18:24;14.80;95.60
36856;DHT22;22788;51.434;6.786;2022-10-16T09:20:57;14.80;95.50
36856;DHT22;22788;51.434;6.786;2022-10-16T09:23:28;14.90;95.80
36856;DHT22;22788;51.434;6.786;2022-10-16T09:25:56;14.90;95.60
36856;DHT22;22788;51.434;6.786;2022-10-16T09:28:23;14.80;95.60
36856;DHT22;22788;51.434;6.786;2022-10-16T09:30:50;14.90;95.80
36856;DHT22;22788;51.434;6.786;2022-10-16T09:33:20;14.80;95.50
36856;DHT22;22788;51.434;6.786;2022-10-16T09:35:50;14.90;96.30
36856;DHT22;22788;51.434;6.786;2022-10-16T09:38:25;15.00;96.60
36856;DHT22;22788;51.434;6.786;2022-10-16T09:40:51;14.90;95.30
36856;DHT22;22788;51.434;6.786;2022-10-16T09:43:22;15.00;95.50
36856;DHT22;22788;51.434;6.786;2022-10-16T09:45:56;15.00;95.70
36856;DHT22;22788;51.434;6.786;2022-10-16T09:48:26;15.00;95.40
36856;DHT22;22788;51.434;6.786;2022-10-16T09:50:57;15.00;95.10
36856;DHT22;22788;51.434;6.786;2022-10-16T09:53:23;15.10;95.70
36856;DHT22;22788;51.434;6.786;2022-10-16T09:55:49;15.10;95.10
36856;DHT22;22788;51.434;6.786;2022-10-16T09:58:16;15.10;95.00
36856;DHT22;22788;51.434;6.786;2022-10-16T10:00:47;15.20;95.10
36856;DHT22;22788;51.434;6.786;2022-10-16T10:03:30;15.20;95.30
36856;DHT22;22788;51.434;6.786;2022-10-16T10:06:14;15.30;94.90
36856;DHT22;22788;51.434;6.786;2022-10-16T10:08:53;15.30;95.30
36856;DHT22;22788;51.434;6.786;2022-10-16T10:11:37;15.20;95.10
36856;DHT22;22788;51.434;6.786;2022-10-16T10:14:13;15.30;94.80
36856;DHT22;22788;51.434;6.786;2022-10-16T10:16:41;15.30;94.60
36856;DHT22;22788;51.434;6.786;2022-10-16T10:19:14;15.30;94.70
36856;DHT22;22788;51.434;6.786;2022-10-16T10:21:40;15.30;94.50
36856;DHT22;22788;51.434;6.786;2022-10-16T10:24:12;15.30;94.70
36856;DHT22;22788;51.434;6.786;2022-10-16T10:26:42;15.40;94.60
36856;DHT22;22788;51.434;6.786;2022-10-16T10:29:17;15.50;94.80
36856;DHT22;22788;51.434;6.786;2022-10-16T10:31:51;15.40;94.50
36856;DHT22;22788;51.434;6.786;2022-10-16T10:34:33;15.40;94.40
36856;DHT22;22788;51.434;6.786;2022-10-16T10:37:05;15.60;94.00
36856;DHT22;22788;51.434;6.786;2022-10-16T10:39:39;15.50;94.30
36856;DHT22;22788;51.434;6.786;2022-10-16T10:42:16;15.50;94.40
36856;DHT22;22788;51.434;6.786;2022-10-16T10:45:11;15.50;94.30
36856;DHT22;22788;51.434;6.786;2022-10-16T10:47:44;15.50;93.70
36856;DHT22;22788;51.434;6.786;2022-10-16T10:50:22;15.60;93.90
36856;DHT22;22788;51.434;6.786;2022-10-16T10:52:59;15.50;94.10
36856;DHT22;22788;51.434;6.786;2022-10-16T10:55:31;15.60;93.70
36856;DHT22;22788;51.434;6.786;2022-10-16T10:58:19;15.60;93.50
36856;DHT22;22788;51.434;6.786;2022-10-16T11:00:55;15.70;94.30
36856;DHT22;22788;51.434;6.786;2022-10-16T11:03:35;15.70;93.30
36856;DHT22;22788;51.434;6.786;2022-10-16T11:06:09;15.70;93.70
36856;DHT22;22788;51.434;6.786;2022-10-16T11:08:40;15.70;93.40
36856;DHT22;22788;51.434;6.786;2022-10-16T11:11:10;15.70;93.40
36856;DHT22;22788;51.434;6.786;2022-10-16T11:13:43;15.90;93.70
36856;DHT22;22788;51.434;6.786;2022-10-16T11:16:14;15.70;93.60
36856;DHT22;22788;51.434;6.786;2022-10-16T11:18:48;15.70;93.60
36856;DHT22;22788;51.434;6.786;2022-10-16T11:21:18;15.80;93.50
36856;DHT22;22788;51.434;6.786;2022-10-16T11:23:51;15.80;93.20
36856;DHT22;22788;51.434;6.786;2022-10-16T11:26:20;15.90;92.80
36856;DHT22;22788;51.434;6.786;2022-10-16T11:28:49;16.00;92.60
36856;DHT22;22788;51.434;6.786;2022-10-16T11:31:21;15.90;93.10
36856;DHT22;22788;51.434;6.786;2022-10-16T11:33:53;15.80;93.40
36856;DHT22;22788;51.434;6.786;2022-10-16T11:36:25;15.90;93.50
36856;DHT22;22788;51.434;6.786;2022-10-16T11:38:57;15.80;93.80
36856;DHT22;22788;51.434;6.786;2022-10-16T11:41:28;15.90;92.70
36856;DHT22;22788;51.434;6.786;2022-10-16T11:44:09;16.00;92.20
36856;DHT22;22788;51.434;6.786;2022-10-16T11:46:42;16.10;92.70
36856;DHT22;22788;51.434;6.786;2022-10-16T11:49:14;16.00;92.60
36856;DHT22;22788;51.434;6.786;2022-10-16T11:51:47;16.00;92.90
36856;DHT22;22788;51.434;6.786;2022-10-16T11:54:19;16.00;93.00
36856;DHT22;22788;51.434;6.786;2022-10-16T11:56:47;16.00;92.80
36856;DHT22;22788;51.434;6.786;2022-10-16T11:59:19;16.00;92.90
36856;DHT22;22788;51.434;6.786;2022-10-16T12:01:50;16.00;93.20
36856;DHT22;22788;51.434;6.786;2022-10-16T12:04:21;15.90;93.60
36856;DHT22;22788;51.434;6.786;2022-10-16T12:06:57;15.90;93.90
36856;DHT22;22788;51.434;6.786;2022-10-16T12:09:26;15.90;93.40
36856;DHT22;22788;51.434;6.786;2022-10-16T12:11:53;15.90;93.00
36856;DHT22;22788;51.434;6.786;2022-10-16T12:14:35;16.00;92.70
36856;DHT22;22788;51.434;6.786;2022-10-16T12:17:04;16.00;93.10
36856;DHT22;22788;51.434;6.786;2022-10-16T12:19:57;16.00;93.30
36856;DHT22;22788;51.434;6.786;2022-10-16T12:22:28;15.90;93.50
36856;DHT22;22788;51.434;6.786;2022-10-16T12:24:55;15.90;93.20
36856;DHT22;22788;51.434;6.786;2022-10-16T12:27:25;15.90;93.60
36856;DHT22;22788;51.434;6.786;2022-10-16T12:29:55;15.90;93.00
36856;DHT22;22788;51.434;6.786;2022-10-16T12:32:28;15.90;93.30
36856;DHT22;22788;51.434;6.786;2022-10-16T12:34:55;15.90;93.00
36856;DHT22;22788;51.434;6.786;2022-10-16T12:37:23;16.00;92.80
36856;DHT22;22788;51.434;6.786;2022-10-16T12:39:52;16.00;92.70
36856;DHT22;22788;51.434;6.786;2022-10-16T12:42:32;16.00;93.80
36856;DHT22;22788;51.434;6.786;2022-10-16T12:44:59;16.10;94.00
36856;DHT22;22788;51.434;6.786;2022-10-16T12:47:37;16.00;93.90
36856;DHT22;22788;51.434;6.786;2022-10-16T12:50:21;16.00;93.70
36856;DHT22;22788;51.434;6.786;2022-10-16T12:52:48;16.00;93.30
36856;DHT22;22788;51.434;6.786;2022-10-16T12:55:17;16.10;93.60
36856;DHT22;22788;51.434;6.786;2022-10-16T12:57:53;16.10;93.60
36856;DHT22;22788;51.434;6.786;2022-10-16T13:00:26;16.10;94.10
36856;DHT22;22788;51.434;6.786;2022-10-16T13:03:34;16.10;93.40
36856;DHT22;22788;51.434;6.786;2022-10-16T13:06:14;16.30;92.10
36856;DHT22;22788;51.434;6.786;2022-10-16T13:08:54;16.20;93.40
36856;DHT22;22788;51.434;6.786;2022-10-16T13:11:29;16.20;93.50
36856;DHT22;22788;51.434;6.786;2022-10-16T13:17:09;16.20;93.80
36856;DHT22;22788;51.434;6.786;2022-10-16T13:19:44;16.10;93.70
36856;DHT22;22788;51.434;6.786;2022-10-16T13:22:19;16.20;94.10
36856;DHT22;22788;51.434;6.786;2022-10-16T13:24:56;16.10;93.10
36856;DHT22;22788;51.434;6.786;2022-10-16T13:27:35;16.20;93.00
36856;DHT22;22788;51.434;6.786;2022-10-16T13:30:12;16.20;92.90
36856;DHT22;22788;51.434;6.786;2022-10-16T13:32:39;16.20;93.50
36856;DHT22;22788;51.434;6.786;2022-10-16T13:35:19;16.20;93.20
36856;DHT22;22788;51.434;6.786;2022-10-16T13:37:45;16.20;93.40
36856;DHT22;22788;51.434;6.786;2022-10-16T13:40:18;16.20;93.50
36856;DHT22;22788;51.434;6.786;2022-10-16T13:42:46;16.20;93.20
36856;DHT22;22788;51.434;6.786;2022-10-16T13:45:19;16.30;93.00
36856;DHT22;22788;51.434;6.786;2022-10-16T13:47:46;16.20;93.10
36856;DHT22;22788;51.434;6.786;2022-10-16T13:50:14;16.20;93.00
36856;DHT22;22788;51.434;6.786;2022-10-16T13:52:40;16.20;93.00
36856;DHT22;22788;51.434;6.786;2022-10-16T13:55:10;16.20;93.00
36856;DHT22;22788;51.434;6.786;2022-10-16T13:57:36;16.30;93.00
36856;DHT22;22788;51.434;6.786;2022-10-16T14:00:17;16.30;92.70
36856;DHT22;22788;51.434;6.786;2022-10-16T14:02:44;16.30;92.80
36856;DHT22;22788;51.434;6.786;2022-10-16T14:05:10;16.30;92.70
36856;DHT22;22788;51.434;6.786;2022-10-16T14:07:37;16.30;92.70
36856;DHT22;22788;51.434;6.786;2022-10-16T14:10:05;16.30;93.00
36856;DHT22;22788;51.434;6.786;2022-10-16T14:12:33;16.30;92.90
36856;DHT22;22788;51.434;6.786;2022-10-16T14:14:59;16.30;92.90
36856;DHT22;22788;51.434;6.786;2022-10-16T14:17:29;16.30;93.20
36856;DHT22;22788;51.434;6.786;2022-10-16T14:19:58;16.30;92.80
36856;DHT22;22788;51.434;6.786;2022-10-16T14:22:29;16.40;92.70
36856;DHT22;22788;51.434;6.786;2022-10-16T14:24:56;16.30;92.50
36856;DHT22;22788;51.434;6.786;2022-10-16T14:27:30;16.30;92.30
36856;DHT22;22788;51.434;6.786;2022-10-16T14:30:13;16.30;92.40
36856;DHT22;22788;51.434;6.786;2022-10-16T14:32:52;16.30;92.30
36856;DHT22;22788;51.434;6.786;2022-10-16T14:35:27;16.20;92.70
36856;DHT22;22788;51.434;6.786;2022-10-16T14:37:55;16.30;92.80
36856;DHT22;22788;51.434;6.786;2022-10-16T14:40:24;16.20;93.10
36856;DHT22;22788;51.434;6.786;2022-10-16T14:42:50;16.20;93.20
36856;DHT22;22788;51.434;6.786;2022-10-16T14:45:20;16.10;93.30
36856;DHT22;22788;51.434;6.786;2022-10-16T14:47:53;16.10;93.30
36856;DHT22;22788;51.434;6.786;2022-10-16T14:50:20;16.20;93.00
36856;DHT22;22788;51.434;6.786;2022-10-16T14:52:46;16.20;92.80
36856;DHT22;22788;51.434;6.786;2022-10-16T14:55:12;16.20;93.00
36856;DHT22;22788;51.434;6.786;2022-10-16T14:57:39;16.20;92.90
36856;DHT22;22788;51.434;6.786;2022-10-16T15:00:13;16.20;93.00
36856;DHT22;22788;51.434;6.786;2022-10-16T15:02:40;16.20;93.20
36856;DHT22;22788;51.434;6.786;2022-10-16T15:05:15;16.20;93.50
36856;DHT22;22788;51.434;6.786;2022-10-16T15:07:41;16.20;93.30
36856;DHT22;22788;51.434;6.786;2022-10-16T15:10:07;16.20;93.40
36856;DHT22;22788;51.434;6.786;2022-10-16T15:12:34;16.20;93.20
36856;DHT22;22788;51.434;6.786;2022-10-16T15:15:00;16.20;93.50
36856;DHT22;22788;51.434;6.786;2022-10-16T15:17:26;16.20;93.40
36856;DHT22;22788;51.434;6.786;2022-10-16T15:19:52;16.20;93.40
36856;DHT22;22788;51.434;6.786;2022-10-16T15:22:19;16.10;93.40
36856;DHT22;22788;51.434;6.786;2022-10-16T15:24:45;16.10;93.50
36856;DHT22;22788;51.434;6.786;2022-10-16T15:27:11;16.10;93.40
36856;DHT22;22788;51.434;6.786;2022-10-16T15:29:37;16.10;93.50
36856;DHT22;22788;51.434;6.786;2022-10-16T15:32:03;16.10;93.60
36856;DHT22;22788;51.434;6.786;2022-10-16T15:34:29;16.10;93.50
36856;DHT22;22788;51.434;6.786;2022-10-16T15:36:55;16.10;93.40
36856;DHT22;22788;51.434;6.786;2022-10-16T15:39:23;16.10;93.40
36856;DHT22;22788;51.434;6.786;2022-10-16T15:41:49;16.10;93.60
36856;DHT22;22788;51.434;6.786;2022-10-16T15:44:15;16.00;93.60
36856;DHT22;22788;51.434;6.786;2022-10-16T15:46:41;16.00;93.70
36856;DHT22;22788;51.434;6.786;2022-10-16T15:49:08;16.10;93.80
36856;DHT22;22788;51.434;6.786;2022-10-16T15:51:37;16.00;93.90
36856;DHT22;22788;51.434;6.786;2022-10-16T15:54:04;16.00;94.00